sensor_id;sensor_type;location;lat;lon;timestamp;temperature;humidity
78467;SHT31;67759;51.972;5.650;2023-04-15T00:00:33;10.9;52.0
78467;SHT31;67759;51.972;5.650;2023-04-15T00:03:03;11.0;52.3
78467;SHT31;67759;51.972;5.650;2023-04-15T00:05:36;11.0;52.3
78467;SHT31;67759;51.972;5.650;2023-04-15T00:08:08;11.0;52.2
78467;SHT31;67759;51.972;5.650;2023-04-15T00:10:38;11.0;52.1
78467;SHT31;67759;51.972;5.650;2023-04-15T00:13:12;11.0;52.0
78467;SHT31;67759;51.972;5.650;2023-04-15T00:15:42;11.0;52.2
78467;SHT31;67759;51.972;5.650;2023-04-15T00:18:12;11.0;52.2
78467;SHT31;67759;51.972;5.650;2023-04-15T00:20:41;11.0;52.0
78467;SHT31;67759;51.972;5.650;2023-04-15T00:23:11;11.0;52.0
78467;SHT31;67759;51.972;5.650;2023-04-15T00:25:41;11.0;51.9
78467;SHT31;67759;51.972;5.650;2023-04-15T00:28:11;11.0;51.9
78467;SHT31;67759;51.972;5.650;2023-04-15T00:30:40;11.0;51.7
78467;SHT31;67759;51.972;5.650;2023-04-15T00:33:11;11.0;52.3
78467;SHT31;67759;51.972;5.650;2023-04-15T00:35:41;11.0;52.2
78467;SHT31;67759;51.972;5.650;2023-04-15T00:38:11;10.9;51.9
78467;SHT31;67759;51.972;5.650;2023-04-15T00:40:44;10.9;52.3
78467;SHT31;67759;51.972;5.650;2023-04-15T00:43:14;10.9;52.2
78467;SHT31;67759;51.972;5.650;2023-04-15T00:45:44;10.8;52.8
78467;SHT31;67759;51.972;5.650;2023-04-15T00:48:15;10.8;52.6
78467;SHT31;67759;51.972;5.650;2023-04-15T00:50:45;10.7;52.5
78467;SHT31;67759;51.972;5.650;2023-04-15T00:53:15;10.7;53.1
78467;SHT31;67759;51.972;5.650;2023-04-15T00:55:44;10.7;53.1
78467;SHT31;67759;51.972;5.650;2023-04-15T00:58:14;10.6;53.1
78467;SHT31;67759;51.972;5.650;2023-04-15T01:00:46;10.6;53.7
78467;SHT31;67759;51.972;5.650;2023-04-15T01:03:20;10.6;53.5
78467;SHT31;67759;51.972;5.650;2023-04-15T01:05:50;10.5;53.5
78467;SHT31;67759;51.972;5.650;2023-04-15T01:08:26;10.5;53.9
78467;SHT31;67759;51.972;5.650;2023-04-15T01:10:57;10.5;53.8
78467;SHT31;67759;51.972;5.650;2023-04-15T01:13:34;10.4;54.0
78467;SHT31;67759;51.972;5.650;2023-04-15T01:16:05;10.4;54.3
78467;SHT31;67759;51.972;5.650;2023-04-15T01:18:36;10.3;54.5
78467;SHT31;67759;51.972;5.650;2023-04-15T01:21:06;10.3;53.8
78467;SHT31;67759;51.972;5.650;2023-04-15T01:23:39;10.3;54.8
78467;SHT31;67759;51.972;5.650;2023-04-15T01:26:09;10.3;55.0
78467;SHT31;67759;51.972;5.650;2023-04-15T01:28:39;10.2;54.6
78467;SHT31;67759;51.972;5.650;2023-04-15T01:31:12;10.2;53.3
78467;SHT31;67759;51.972;5.650;2023-04-15T01:33:42;10.1;54.9
78467;SHT31;67759;51.972;5.650;2023-04-15T01:36:12;10.1;55.1
78467;SHT31;67759;51.972;5.650;2023-04-15T01:38:41;10.1;55.0
78467;SHT31;67759;51.972;5.650;2023-04-15T01:41:14;10.0;55.3
78467;SHT31;67759;51.972;5.650;2023-04-15T01:43:46;10.0;55.5
78467;SHT31;67759;51.972;5.650;2023-04-15T01:46:16;9.9;55.5
78467;SHT31;67759;51.972;5.650;2023-04-15T01:48:45;9.9;55.9
78467;SHT31;67759;51.972;5.650;2023-04-15T01:51:15;9.8;55.5
78467;SHT31;67759;51.972;5.650;2023-04-15T01:53:45;9.8;55.8
78467;SHT31;67759;51.972;5.650;2023-04-15T01:56:15;9.8;56.1
78467;SHT31;67759;51.972;5.650;2023-04-15T01:58:45;9.7;56.1
78467;SHT31;67759;51.972;5.650;2023-04-15T02:01:14;9.6;56.2
78467;SHT31;67759;51.972;5.650;2023-04-15T02:03:46;9.6;56.4
78467;SHT31;67759;51.972;5.650;2023-04-15T02:06:15;9.6;57.1
78467;SHT31;67759;51.972;5.650;2023-04-15T02:08:46;9.5;57.3
78467;SHT31;67759;51.972;5.650;2023-04-15T02:11:16;9.5;57.3
78467;SHT31;67759;51.972;5.650;2023-04-15T02:13:46;9.4;57.3
78467;SHT31;67759;51.972;5.650;2023-04-15T02:16:16;9.4;57.1
78467;SHT31;67759;51.972;5.650;2023-04-15T02:18:46;9.4;57.2
78467;SHT31;67759;51.972;5.650;2023-04-15T02:21:15;9.4;57.7
78467;SHT31;67759;51.972;5.650;2023-04-15T02:23:45;9.4;57.7
78467;SHT31;67759;51.972;5.650;2023-04-15T02:26:17;9.3;57.7
78467;SHT31;67759;51.972;5.650;2023-04-15T02:28:48;9.3;56.7
78467;SHT31;67759;51.972;5.650;2023-04-15T02:31:18;9.3;57.5
78467;SHT31;67759;51.972;5.650;2023-04-15T02:33:50;9.2;57.9
78467;SHT31;67759;51.972;5.650;2023-04-15T02:36:19;9.2;58.7
78467;SHT31;67759;51.972;5.650;2023-04-15T02:38:50;9.1;58.7
78467;SHT31;67759;51.972;5.650;2023-04-15T02:41:19;9.1;57.6
78467;SHT31;67759;51.972;5.650;2023-04-15T02:43:53;9.1;57.0
78467;SHT31;67759;51.972;5.650;2023-04-15T02:46:23;9.1;55.5
78467;SHT31;67759;51.972;5.650;2023-04-15T02:48:53;9.1;58.7
78467;SHT31;67759;51.972;5.650;2023-04-15T02:51:23;9.1;58.7
78467;SHT31;67759;51.972;5.650;2023-04-15T02:53:52;9.0;59.2
78467;SHT31;67759;51.972;5.650;2023-04-15T02:56:22;9.0;59.7
78467;SHT31;67759;51.972;5.650;2023-04-15T02:58:52;9.0;59.4
78467;SHT31;67759;51.972;5.650;2023-04-15T03:01:23;8.9;60.0
78467;SHT31;67759;51.972;5.650;2023-04-15T03:03:53;8.9;60.0
78467;SHT31;67759;51.972;5.650;2023-04-15T03:06:23;8.8;60.2
78467;SHT31;67759;51.972;5.650;2023-04-15T03:08:53;8.8;60.7
78467;SHT31;67759;51.972;5.650;2023-04-15T03:11:23;8.8;60.6
78467;SHT31;67759;51.972;5.650;2023-04-15T03:13:53;8.7;61.0
78467;SHT31;67759;51.972;5.650;2023-04-15T03:16:23;8.7;61.2
78467;SHT31;67759;51.972;5.650;2023-04-15T03:18:54;8.7;61.5
78467;SHT31;67759;51.972;5.650;2023-04-15T03:21:25;8.7;61.5
78467;SHT31;67759;51.972;5.650;2023-04-15T03:23:55;8.6;61.5
78467;SHT31;67759;51.972;5.650;2023-04-15T03:26:27;8.6;62.0
78467;SHT31;67759;51.972;5.650;2023-04-15T03:28:57;8.6;62.2
78467;SHT31;67759;51.972;5.650;2023-04-15T03:31:27;8.6;62.0
78467;SHT31;67759;51.972;5.650;2023-04-15T03:33:57;8.6;62.2
78467;SHT31;67759;51.972;5.650;2023-04-15T03:36:30;8.5;62.6
78467;SHT31;67759;51.972;5.650;2023-04-15T03:39:00;8.5;62.4
78467;SHT31;67759;51.972;5.650;2023-04-15T03:41:30;8.5;63.0
78467;SHT31;67759;51.972;5.650;2023-04-15T03:44:00;8.5;63.0
78467;SHT31;67759;51.972;5.650;2023-04-15T03:46:30;8.5;62.9
78467;SHT31;67759;51.972;5.650;2023-04-15T03:49:03;8.5;62.4
78467;SHT31;67759;51.972;5.650;2023-04-15T03:51:34;8.5;63.5
78467;SHT31;67759;51.972;5.650;2023-04-15T03:54:04;8.4;62.7
78467;SHT31;67759;51.972;5.650;2023-04-15T03:56:34;8.4;63.1
78467;SHT31;67759;51.972;5.650;2023-04-15T03:59:03;8.4;63.7
78467;SHT31;67759;51.972;5.650;2023-04-15T04:01:33;8.4;63.6
78467;SHT31;67759;51.972;5.650;2023-04-15T04:04:02;8.4;62.9
78467;SHT31;67759;51.972;5.650;2023-04-15T04:06:32;8.4;63.5
78467;SHT31;67759;51.972;5.650;2023-04-15T04:09:03;8.4;63.9
78467;SHT31;67759;51.972;5.650;2023-04-15T04:11:32;8.4;64.0
78467;SHT31;67759;51.972;5.650;2023-04-15T04:14:02;8.4;64.0
78467;SHT31;67759;51.972;5.650;2023-04-15T04:16:32;8.4;64.1
78467;SHT31;67759;51.972;5.650;2023-04-15T04:19:02;8.4;63.8
78467;SHT31;67759;51.972;5.650;2023-04-15T04:21:31;8.4;64.2
78467;SHT31;67759;51.972;5.650;2023-04-15T04:24:02;8.3;64.5
78467;SHT31;67759;51.972;5.650;2023-04-15T04:26:32;8.3;64.3
78467;SHT31;67759;51.972;5.650;2023-04-15T04:29:02;8.3;64.5
78467;SHT31;67759;51.972;5.650;2023-04-15T04:31:31;8.3;63.5
78467;SHT31;67759;51.972;5.650;2023-04-15T04:34:01;8.2;64.5
78467;SHT31;67759;51.972;5.650;2023-04-15T04:36:30;8.2;64.7
78467;SHT31;67759;51.972;5.650;2023-04-15T04:39:01;8.2;64.5
78467;SHT31;67759;51.972;5.650;2023-04-15T04:41:31;8.2;64.8
78467;SHT31;67759;51.972;5.650;2023-04-15T04:44:02;8.1;64.6
78467;SHT31;67759;51.972;5.650;2023-04-15T04:46:32;8.1;65.3
78467;SHT31;67759;51.972;5.650;2023-04-15T04:49:01;8.1;63.6
78467;SHT31;67759;51.972;5.650;2023-04-15T04:51:31;8.1;65.4
78467;SHT31;67759;51.972;5.650;2023-04-15T04:54:01;8.1;65.5
78467;SHT31;67759;51.972;5.650;2023-04-15T04:56:31;8.0;65.4
78467;SHT31;67759;51.972;5.650;2023-04-15T04:59:02;8.0;65.4
78467;SHT31;67759;51.972;5.650;2023-04-15T05:01:33;8.0;66.2
78467;SHT31;67759;51.972;5.650;2023-04-15T05:04:03;8.0;66.3
78467;SHT31;67759;51.972;5.650;2023-04-15T05:06:33;8.0;65.9
78467;SHT31;67759;51.972;5.650;2023-04-15T05:09:04;8.0;65.9
78467;SHT31;67759;51.972;5.650;2023-04-15T05:11:33;8.0;66.3
78467;SHT31;67759;51.972;5.650;2023-04-15T05:14:03;8.0;66.6
78467;SHT31;67759;51.972;5.650;2023-04-15T05:16:32;8.0;66.3
78467;SHT31;67759;51.972;5.650;2023-04-15T05:19:02;8.0;66.2
78467;SHT31;67759;51.972;5.650;2023-04-15T05:21:34;8.0;66.9
78467;SHT31;67759;51.972;5.650;2023-04-15T05:24:04;8.0;66.6
78467;SHT31;67759;51.972;5.650;2023-04-15T05:26:34;8.0;67.1
78467;SHT31;67759;51.972;5.650;2023-04-15T05:29:03;8.0;66.6
78467;SHT31;67759;51.972;5.650;2023-04-15T05:31:36;8.0;65.4
78467;SHT31;67759;51.972;5.650;2023-04-15T05:34:06;8.0;66.4
78467;SHT31;67759;51.972;5.650;2023-04-15T05:36:35;8.0;66.7
78467;SHT31;67759;51.972;5.650;2023-04-15T05:39:05;8.1;66.8
78467;SHT31;67759;51.972;5.650;2023-04-15T05:41:35;8.1;66.8
78467;SHT31;67759;51.972;5.650;2023-04-15T05:44:04;8.1;66.4
78467;SHT31;67759;51.972;5.650;2023-04-15T05:46:34;8.1;67.2
78467;SHT31;67759;51.972;5.650;2023-04-15T05:49:04;8.2;67.1
78467;SHT31;67759;51.972;5.650;2023-04-15T05:51:34;8.3;66.8
78467;SHT31;67759;51.972;5.650;2023-04-15T05:54:04;8.4;67.7
78467;SHT31;67759;51.972;5.650;2023-04-15T05:56:33;8.5;66.0
78467;SHT31;67759;51.972;5.650;2023-04-15T05:59:03;8.7;66.5
78467;SHT31;67759;51.972;5.650;2023-04-15T06:01:34;8.9;66.3
78467;SHT31;67759;51.972;5.650;2023-04-15T06:04:04;9.0;66.4
78467;SHT31;67759;51.972;5.650;2023-04-15T06:06:34;9.1;65.9
78467;SHT31;67759;51.972;5.650;2023-04-15T06:09:03;9.3;65.4
78467;SHT31;67759;51.972;5.650;2023-04-15T06:11:33;9.4;64.5
78467;SHT31;67759;51.972;5.650;2023-04-15T06:14:05;9.4;65.2
78467;SHT31;67759;51.972;5.650;2023-04-15T06:16:35;9.5;64.8
78467;SHT31;67759;51.972;5.650;2023-04-15T06:19:04;9.6;64.8
78467;SHT31;67759;51.972;5.650;2023-04-15T06:21:34;9.6;64.2
78467;SHT31;67759;51.972;5.650;2023-04-15T06:24:04;9.7;64.0
78467;SHT31;67759;51.972;5.650;2023-04-15T06:26:34;9.7;64.0
78467;SHT31;67759;51.972;5.650;2023-04-15T06:29:05;9.8;63.4
78467;SHT31;67759;51.972;5.650;2023-04-15T06:31:35;9.8;63.9
78467;SHT31;67759;51.972;5.650;2023-04-15T06:34:04;9.9;63.5
78467;SHT31;67759;51.972;5.650;2023-04-15T06:36:36;10.0;63.7
78467;SHT31;67759;51.972;5.650;2023-04-15T06:39:07;10.0;63.2
78467;SHT31;67759;51.972;5.650;2023-04-15T06:41:41;10.1;63.5
78467;SHT31;67759;51.972;5.650;2023-04-15T06:44:11;10.1;62.7
78467;SHT31;67759;51.972;5.650;2023-04-15T06:46:41;10.2;63.7
78467;SHT31;67759;51.972;5.650;2023-04-15T06:49:10;10.2;63.8
78467;SHT31;67759;51.972;5.650;2023-04-15T06:51:41;10.3;63.1
78467;SHT31;67759;51.972;5.650;2023-04-15T06:54:13;10.4;63.6
78467;SHT31;67759;51.972;5.650;2023-04-15T06:56:43;10.4;62.6
78467;SHT31;67759;51.972;5.650;2023-04-15T06:59:13;10.5;62.8
78467;SHT31;67759;51.972;5.650;2023-04-15T07:01:44;10.5;62.7
78467;SHT31;67759;51.972;5.650;2023-04-15T07:04:14;10.5;62.1
78467;SHT31;67759;51.972;5.650;2023-04-15T07:06:44;10.6;62.4
78467;SHT31;67759;51.972;5.650;2023-04-15T07:09:13;10.6;62.1
78467;SHT31;67759;51.972;5.650;2023-04-15T07:11:43;10.7;61.7
78467;SHT31;67759;51.972;5.650;2023-04-15T07:14:12;10.7;62.0
78467;SHT31;67759;51.972;5.650;2023-04-15T07:16:42;10.8;60.8
78467;SHT31;67759;51.972;5.650;2023-04-15T07:19:12;10.9;61.0
78467;SHT31;67759;51.972;5.650;2023-04-15T07:21:42;10.9;59.8
78467;SHT31;67759;51.972;5.650;2023-04-15T07:24:11;11.0;59.6
78467;SHT31;67759;51.972;5.650;2023-04-15T07:26:44;11.1;59.0
78467;SHT31;67759;51.972;5.650;2023-04-15T07:29:13;11.2;58.1
78467;SHT31;67759;51.972;5.650;2023-04-15T07:31:43;11.2;58.0
78467;SHT31;67759;51.972;5.650;2023-04-15T07:34:13;11.3;58.4
78467;SHT31;67759;51.972;5.650;2023-04-15T07:36:43;11.4;57.3
78467;SHT31;67759;51.972;5.650;2023-04-15T07:39:17;11.4;55.8
78467;SHT31;67759;51.972;5.650;2023-04-15T07:41:46;11.5;56.2
78467;SHT31;67759;51.972;5.650;2023-04-15T07:44:19;11.5;55.3
78467;SHT31;67759;51.972;5.650;2023-04-15T07:46:49;11.5;55.4
78467;SHT31;67759;51.972;5.650;2023-04-15T07:49:19;11.6;55.6
78467;SHT31;67759;51.972;5.650;2023-04-15T07:51:48;11.6;55.1
78467;SHT31;67759;51.972;5.650;2023-04-15T07:54:18;11.7;55.5
78467;SHT31;67759;51.972;5.650;2023-04-15T07:56:47;11.7;55.2
78467;SHT31;67759;51.972;5.650;2023-04-15T07:59:17;11.8;55.0
78467;SHT31;67759;51.972;5.650;2023-04-15T08:01:47;11.9;54.9
78467;SHT31;67759;51.972;5.650;2023-04-15T08:04:19;11.9;53.8
78467;SHT31;67759;51.972;5.650;2023-04-15T08:06:49;12.0;54.5
78467;SHT31;67759;51.972;5.650;2023-04-15T08:09:19;12.0;54.2
78467;SHT31;67759;51.972;5.650;2023-04-15T08:11:49;12.1;53.9
78467;SHT31;67759;51.972;5.650;2023-04-15T08:14:19;12.1;54.1
78467;SHT31;67759;51.972;5.650;2023-04-15T08:16:49;12.1;54.2
78467;SHT31;67759;51.972;5.650;2023-04-15T08:19:19;12.1;53.7
78467;SHT31;67759;51.972;5.650;2023-04-15T08:21:51;12.2;54.0
78467;SHT31;67759;51.972;5.650;2023-04-15T08:24:20;12.2;53.9
78467;SHT31;67759;51.972;5.650;2023-04-15T08:26:52;12.3;53.2
78467;SHT31;67759;51.972;5.650;2023-04-15T08:29:23;12.3;53.1
78467;SHT31;67759;51.972;5.650;2023-04-15T08:31:53;12.3;53.1
78467;SHT31;67759;51.972;5.650;2023-04-15T08:34:23;12.4;54.1
78467;SHT31;67759;51.972;5.650;2023-04-15T08:36:53;12.4;54.2
78467;SHT31;67759;51.972;5.650;2023-04-15T08:39:23;12.6;53.1
78467;SHT31;67759;51.972;5.650;2023-04-15T08:42:00;12.7;53.4
78467;SHT31;67759;51.972;5.650;2023-04-15T08:44:32;12.8;52.6
78467;SHT31;67759;51.972;5.650;2023-04-15T08:47:07;12.9;51.9
78467;SHT31;67759;51.972;5.650;2023-04-15T08:49:39;13.0;52.6
78467;SHT31;67759;51.972;5.650;2023-04-15T08:52:09;13.1;51.8
78467;SHT31;67759;51.972;5.650;2023-04-15T08:54:39;13.2;51.4
78467;SHT31;67759;51.972;5.650;2023-04-15T08:57:13;13.3;51.7
78467;SHT31;67759;51.972;5.650;2023-04-15T08:59:44;13.4;50.2
78467;SHT31;67759;51.972;5.650;2023-04-15T09:02:16;13.5;50.4
78467;SHT31;67759;51.972;5.650;2023-04-15T09:04:47;13.5;51.3
78467;SHT31;67759;51.972;5.650;2023-04-15T09:07:17;13.6;51.2
78467;SHT31;67759;51.972;5.650;2023-04-15T09:09:47;13.8;50.0
78467;SHT31;67759;51.972;5.650;2023-04-15T09:12:18;13.9;49.6
78467;SHT31;67759;51.972;5.650;2023-04-15T09:14:48;14.1;49.7
78467;SHT31;67759;51.972;5.650;2023-04-15T09:17:19;14.2;49.8
78467;SHT31;67759;51.972;5.650;2023-04-15T09:20:08;14.4;49.6
78467;SHT31;67759;51.972;5.650;2023-04-15T09:22:40;14.5;48.2
78467;SHT31;67759;51.972;5.650;2023-04-15T09:25:29;14.6;48.8
78467;SHT31;67759;51.972;5.650;2023-04-15T09:28:01;14.7;48.7
78467;SHT31;67759;51.972;5.650;2023-04-15T09:30:32;14.8;48.5
78467;SHT31;67759;51.972;5.650;2023-04-15T09:33:03;14.9;48.5
78467;SHT31;67759;51.972;5.650;2023-04-15T09:35:34;15.0;48.0
78467;SHT31;67759;51.972;5.650;2023-04-15T09:38:07;15.1;48.2
78467;SHT31;67759;51.972;5.650;2023-04-15T09:40:38;15.2;48.4
78467;SHT31;67759;51.972;5.650;2023-04-15T09:43:09;15.4;48.4
78467;SHT31;67759;51.972;5.650;2023-04-15T09:45:47;15.5;45.8
78467;SHT31;67759;51.972;5.650;2023-04-15T09:48:19;15.7;44.7
78467;SHT31;67759;51.972;5.650;2023-04-15T09:50:49;15.9;44.0
78467;SHT31;67759;51.972;5.650;2023-04-15T09:53:22;15.9;43.7
78467;SHT31;67759;51.972;5.650;2023-04-15T09:55:54;16.0;43.6
78467;SHT31;67759;51.972;5.650;2023-04-15T09:58:25;16.1;43.7
78467;SHT31;67759;51.972;5.650;2023-04-15T10:00:56;16.1;44.2
78467;SHT31;67759;51.972;5.650;2023-04-15T10:03:28;16.2;44.3
78467;SHT31;67759;51.972;5.650;2023-04-15T10:06:00;16.3;44.6
78467;SHT31;67759;51.972;5.650;2023-04-15T10:08:31;16.3;43.6
78467;SHT31;67759;51.972;5.650;2023-04-15T10:11:04;16.4;43.4
78467;SHT31;67759;51.972;5.650;2023-04-15T10:13:36;16.4;43.2
78467;SHT31;67759;51.972;5.650;2023-04-15T10:16:10;16.5;43.7
78467;SHT31;67759;51.972;5.650;2023-04-15T10:18:43;16.5;44.5
78467;SHT31;67759;51.972;5.650;2023-04-15T10:21:13;16.6;43.5
78467;SHT31;67759;51.972;5.650;2023-04-15T10:23:45;16.8;43.9
78467;SHT31;67759;51.972;5.650;2023-04-15T10:26:16;16.9;43.0
78467;SHT31;67759;51.972;5.650;2023-04-15T10:28:47;17.0;42.6
78467;SHT31;67759;51.972;5.650;2023-04-15T10:31:17;17.0;42.4
78467;SHT31;67759;51.972;5.650;2023-04-15T10:33:47;17.0;42.4
78467;SHT31;67759;51.972;5.650;2023-04-15T10:36:19;17.0;42.7
78467;SHT31;67759;51.972;5.650;2023-04-15T10:38:49;17.1;43.2
78467;SHT31;67759;51.972;5.650;2023-04-15T10:41:22;17.1;42.8
78467;SHT31;67759;51.972;5.650;2023-04-15T10:43:54;17.1;42.2
78467;SHT31;67759;51.972;5.650;2023-04-15T10:46:35;17.1;42.3
78467;SHT31;67759;51.972;5.650;2023-04-15T10:49:10;17.1;43.0
78467;SHT31;67759;51.972;5.650;2023-04-15T10:51:42;17.1;42.8
78467;SHT31;67759;51.972;5.650;2023-04-15T10:54:16;17.2;43.6
78467;SHT31;67759;51.972;5.650;2023-04-15T10:57:06;17.2;43.3
78467;SHT31;67759;51.972;5.650;2023-04-15T10:59:28;17.3;43.6
78467;SHT31;67759;51.972;5.650;2023-04-15T11:02:01;17.3;43.2
78467;SHT31;67759;51.972;5.650;2023-04-15T11:04:54;17.4;43.9
78467;SHT31;67759;51.972;5.650;2023-04-15T11:07:36;17.6;42.5
78467;SHT31;67759;51.972;5.650;2023-04-15T11:10:50;17.8;42.1
78467;SHT31;67759;51.972;5.650;2023-04-15T11:13:27;18.0;41.4
78467;SHT31;67759;51.972;5.650;2023-04-15T11:16:29;18.2;41.4
78467;SHT31;67759;51.972;5.650;2023-04-15T11:18:58;18.3;41.0
78467;SHT31;67759;51.972;5.650;2023-04-15T11:21:29;18.4;41.5
78467;SHT31;67759;51.972;5.650;2023-04-15T11:23:58;18.5;40.1
78467;SHT31;67759;51.972;5.650;2023-04-15T11:26:28;18.5;39.9
78467;SHT31;67759;51.972;5.650;2023-04-15T11:28:58;18.6;39.9
78467;SHT31;67759;51.972;5.650;2023-04-15T11:31:28;18.6;40.4
78467;SHT31;67759;51.972;5.650;2023-04-15T11:33:59;18.6;40.5
78467;SHT31;67759;51.972;5.650;2023-04-15T11:36:30;18.7;40.4
78467;SHT31;67759;51.972;5.650;2023-04-15T11:39:00;18.8;40.1
78467;SHT31;67759;51.972;5.650;2023-04-15T11:41:34;18.9;40.2
78467;SHT31;67759;51.972;5.650;2023-04-15T11:44:17;18.9;39.9
78467;SHT31;67759;51.972;5.650;2023-04-15T11:46:46;19.0;39.3
78467;SHT31;67759;51.972;5.650;2023-04-15T11:49:27;19.0;38.8
78467;SHT31;67759;51.972;5.650;2023-04-15T11:51:57;19.1;39.1
78467;SHT31;67759;51.972;5.650;2023-04-15T11:54:28;19.1;39.0
78467;SHT31;67759;51.972;5.650;2023-04-15T11:56:58;19.2;39.1
78467;SHT31;67759;51.972;5.650;2023-04-15T11:59:42;19.2;39.1
78467;SHT31;67759;51.972;5.650;2023-04-15T12:02:12;19.3;38.0
78467;SHT31;67759;51.972;5.650;2023-04-15T12:04:42;19.3;38.4
78467;SHT31;67759;51.972;5.650;2023-04-15T12:07:13;19.3;38.1
78467;SHT31;67759;51.972;5.650;2023-04-15T12:09:43;19.3;38.7
78467;SHT31;67759;51.972;5.650;2023-04-15T12:12:18;19.3;39.0
78467;SHT31;67759;51.972;5.650;2023-04-15T12:14:50;19.4;38.5
78467;SHT31;67759;51.972;5.650;2023-04-15T12:17:22;19.4;38.7
78467;SHT31;67759;51.972;5.650;2023-04-15T12:19:55;19.4;38.9
78467;SHT31;67759;51.972;5.650;2023-04-15T12:22:25;19.5;37.1
78467;SHT31;67759;51.972;5.650;2023-04-15T12:24:56;19.5;37.3
78467;SHT31;67759;51.972;5.650;2023-04-15T12:27:28;19.5;38.0
78467;SHT31;67759;51.972;5.650;2023-04-15T12:30:04;19.5;38.4
78467;SHT31;67759;51.972;5.650;2023-04-15T12:32:35;19.5;37.7
78467;SHT31;67759;51.972;5.650;2023-04-15T12:35:06;19.5;38.3
78467;SHT31;67759;51.972;5.650;2023-04-15T12:37:37;19.5;39.0
78467;SHT31;67759;51.972;5.650;2023-04-15T12:40:07;19.5;38.6
78467;SHT31;67759;51.972;5.650;2023-04-15T12:42:37;19.5;38.9
78467;SHT31;67759;51.972;5.650;2023-04-15T12:45:07;19.5;38.8
78467;SHT31;67759;51.972;5.650;2023-04-15T12:47:37;19.5;38.2
78467;SHT31;67759;51.972;5.650;2023-04-15T12:50:07;19.5;37.9
78467;SHT31;67759;51.972;5.650;2023-04-15T12:52:37;19.4;37.6
78467;SHT31;67759;51.972;5.650;2023-04-15T12:55:07;19.3;37.3
78467;SHT31;67759;51.972;5.650;2023-04-15T12:57:38;19.2;38.7
78467;SHT31;67759;51.972;5.650;2023-04-15T13:00:09;19.2;37.9
78467;SHT31;67759;51.972;5.650;2023-04-15T13:02:39;19.2;38.5
78467;SHT31;67759;51.972;5.650;2023-04-15T13:05:10;19.2;38.4
78467;SHT31;67759;51.972;5.650;2023-04-15T13:07:41;19.2;38.7
78467;SHT31;67759;51.972;5.650;2023-04-15T13:10:11;19.3;38.5
78467;SHT31;67759;51.972;5.650;2023-04-15T13:12:41;19.3;39.3
78467;SHT31;67759;51.972;5.650;2023-04-15T13:15:13;19.3;38.5
78467;SHT31;67759;51.972;5.650;2023-04-15T13:17:48;19.3;38.3
78467;SHT31;67759;51.972;5.650;2023-04-15T13:20:18;19.3;37.8
78467;SHT31;67759;51.972;5.650;2023-04-15T13:22:48;19.3;37.8
78467;SHT31;67759;51.972;5.650;2023-04-15T13:25:18;19.2;39.0
78467;SHT31;67759;51.972;5.650;2023-04-15T13:27:48;19.2;39.3
78467;SHT31;67759;51.972;5.650;2023-04-15T13:30:18;19.2;39.6
78467;SHT31;67759;51.972;5.650;2023-04-15T13:32:48;19.2;39.8
78467;SHT31;67759;51.972;5.650;2023-04-15T13:35:18;19.2;39.3
78467;SHT31;67759;51.972;5.650;2023-04-15T13:37:49;19.2;39.2
78467;SHT31;67759;51.972;5.650;2023-04-15T13:40:20;19.2;40.3
78467;SHT31;67759;51.972;5.650;2023-04-15T13:42:50;19.2;39.9
78467;SHT31;67759;51.972;5.650;2023-04-15T13:45:22;19.3;40.5
78467;SHT31;67759;51.972;5.650;2023-04-15T13:47:52;19.3;38.6
78467;SHT31;67759;51.972;5.650;2023-04-15T13:50:21;19.3;39.6
78467;SHT31;67759;51.972;5.650;2023-04-15T13:52:51;19.2;38.5
78467;SHT31;67759;51.972;5.650;2023-04-15T13:55:22;19.2;39.7
78467;SHT31;67759;51.972;5.650;2023-04-15T13:57:55;19.2;39.1
78467;SHT31;67759;51.972;5.650;2023-04-15T14:00:26;19.2;39.7
78467;SHT31;67759;51.972;5.650;2023-04-15T14:02:55;19.2;39.9
78467;SHT31;67759;51.972;5.650;2023-04-15T14:05:26;19.1;39.0
78467;SHT31;67759;51.972;5.650;2023-04-15T14:07:58;19.1;39.9
78467;SHT31;67759;51.972;5.650;2023-04-15T14:10:28;19.0;40.5
78467;SHT31;67759;51.972;5.650;2023-04-15T14:12:58;19.0;40.3
78467;SHT31;67759;51.972;5.650;2023-04-15T14:15:27;19.0;40.5
78467;SHT31;67759;51.972;5.650;2023-04-15T14:17:57;18.9;40.8
78467;SHT31;67759;51.972;5.650;2023-04-15T14:20:26;18.7;41.4
78467;SHT31;67759;51.972;5.650;2023-04-15T14:22:56;18.6;41.2
78467;SHT31;67759;51.972;5.650;2023-04-15T14:25:27;18.6;41.7
78467;SHT31;67759;51.972;5.650;2023-04-15T14:27:57;18.5;41.6
78467;SHT31;67759;51.972;5.650;2023-04-15T14:30:26;18.4;41.2
78467;SHT31;67759;51.972;5.650;2023-04-15T14:32:56;18.4;41.1
78467;SHT31;67759;51.972;5.650;2023-04-15T14:35:25;18.2;41.5
78467;SHT31;67759;51.972;5.650;2023-04-15T14:37:55;18.1;42.3
78467;SHT31;67759;51.972;5.650;2023-04-15T14:40:25;18.0;41.8
78467;SHT31;67759;51.972;5.650;2023-04-15T14:42:54;17.8;42.4
78467;SHT31;67759;51.972;5.650;2023-04-15T14:45:24;17.7;42.6
78467;SHT31;67759;51.972;5.650;2023-04-15T14:47:55;17.6;43.0
78467;SHT31;67759;51.972;5.650;2023-04-15T14:50:25;17.5;43.4
78467;SHT31;67759;51.972;5.650;2023-04-15T14:52:54;17.4;43.4
78467;SHT31;67759;51.972;5.650;2023-04-15T14:55:24;17.3;43.3
78467;SHT31;67759;51.972;5.650;2023-04-15T14:57:54;17.2;43.3
78467;SHT31;67759;51.972;5.650;2023-04-15T15:00:23;17.0;43.8
78467;SHT31;67759;51.972;5.650;2023-04-15T15:02:52;16.9;43.9
78467;SHT31;67759;51.972;5.650;2023-04-15T15:05:22;16.8;44.4
78467;SHT31;67759;51.972;5.650;2023-04-15T15:07:52;16.6;44.8
78467;SHT31;67759;51.972;5.650;2023-04-15T15:10:21;16.5;45.3
78467;SHT31;67759;51.972;5.650;2023-04-15T15:12:51;16.4;45.6
78467;SHT31;67759;51.972;5.650;2023-04-15T15:15:22;16.3;46.2
78467;SHT31;67759;51.972;5.650;2023-04-15T15:17:52;16.2;46.5
78467;SHT31;67759;51.972;5.650;2023-04-15T15:20:26;16.1;46.4
78467;SHT31;67759;51.972;5.650;2023-04-15T15:22:56;16.1;47.0
78467;SHT31;67759;51.972;5.650;2023-04-15T15:25:25;16.0;47.6
78467;SHT31;67759;51.972;5.650;2023-04-15T15:27:56;15.9;47.6
78467;SHT31;67759;51.972;5.650;2023-04-15T15:30:26;15.9;47.4
78467;SHT31;67759;51.972;5.650;2023-04-15T15:32:55;15.8;47.3
78467;SHT31;67759;51.972;5.650;2023-04-15T15:35:25;15.7;47.8
78467;SHT31;67759;51.972;5.650;2023-04-15T15:37:55;15.6;47.1
78467;SHT31;67759;51.972;5.650;2023-04-15T15:40:24;15.6;47.4
78467;SHT31;67759;51.972;5.650;2023-04-15T15:42:54;15.5;48.3
78467;SHT31;67759;51.972;5.650;2023-04-15T15:45:24;15.5;48.4
78467;SHT31;67759;51.972;5.650;2023-04-15T15:47:54;15.5;48.3
78467;SHT31;67759;51.972;5.650;2023-04-15T15:50:25;15.4;48.3
78467;SHT31;67759;51.972;5.650;2023-04-15T15:52:55;15.4;48.3
78467;SHT31;67759;51.972;5.650;2023-04-15T15:55:24;15.4;48.2
78467;SHT31;67759;51.972;5.650;2023-04-15T15:57:54;15.3;48.4
78467;SHT31;67759;51.972;5.650;2023-04-15T16:00:24;15.2;48.4
78467;SHT31;67759;51.972;5.650;2023-04-15T16:02:55;15.2;48.5
78467;SHT31;67759;51.972;5.650;2023-04-15T16:05:25;15.1;48.8
78467;SHT31;67759;51.972;5.650;2023-04-15T16:07:57;15.0;48.7
78467;SHT31;67759;51.972;5.650;2023-04-15T16:10:26;14.9;49.4
78467;SHT31;67759;51.972;5.650;2023-04-15T16:12:57;14.9;49.3
78467;SHT31;67759;51.972;5.650;2023-04-15T16:15:26;14.8;49.6
78467;SHT31;67759;51.972;5.650;2023-04-15T16:17:56;14.7;50.0
78467;SHT31;67759;51.972;5.650;2023-04-15T16:20:26;14.6;50.4
78467;SHT31;67759;51.972;5.650;2023-04-15T16:22:57;14.5;50.1
78467;SHT31;67759;51.972;5.650;2023-04-15T16:25:29;14.4;50.3
78467;SHT31;67759;51.972;5.650;2023-04-15T16:27:59;14.3;50.8
78467;SHT31;67759;51.972;5.650;2023-04-15T16:30:28;14.2;51.2